Antimilos — SVBY6 — position and weather

sailwx.info

Track history (hours):
 
Tides and Currents Weather Stations Pressure Air Temp Water Temp Dewpoint Dewpoint Depression Visibility Wind Speed Wind Dir Waves Ship Positions

Antimilos

Last reported at 2017-Nov-18 23:03 UTC. Time now 2017-Nov-24 09:46 UTC.
Position N 56°54' E 007°40'.

Length 228 m; draft 11.7 m.

Type: Tanker. MMSI: 241315000.

Date/timePositionNaut miles runAvg speedWind from/ knotsBaromVisibWave heightAir tempDewpointWater temp
2017-Nov-18 23:03N 56°54' E 007°40'1 8.9
2017-Nov-18 22:59N 56°54' E 007°41'4 9.1
2017-Nov-18 22:30N 56°58' E 007°46'5 9.3
2017-Nov-18 21:59N 57°01' E 007°52'4 8.1
2017-Nov-18 21:30N 57°04' E 007°57'4 8.3
2017-Nov-18 20:59N 57°08' E 008°01'87 9.6
2017-Nov-18 11:54N 57°49' E 010°23'512.1
2017-Nov-18 11:30N 57°49' E 010°32'611.9
2017-Nov-18 11:00N 57°49' E 010°43'610.8
2017-Nov-18 10:29N 57°44' E 010°48'4 7.2
2017-Nov-18 09:59N 57°41' E 010°47'4 8.5
2017-Nov-18 09:30N 57°38' E 010°52'612.8
2017-Nov-18 09:00N 57°35' E 011°02'612.9
2017-Nov-18 08:30N 57°32' E 011°13'712.9
2017-Nov-18 07:59N 57°29' E 011°24'613.4
2017-Nov-18 07:30N 57°23' E 011°30'713.6
2017-Nov-18 07:00N 57°17' E 011°34'713.5
2017-Nov-18 06:30N 57°10' E 011°39'713.4
2017-Nov-18 06:00N 57°04' E 011°42'11312.3
2017-Nov-17 20:50N 55°13' E 011°06'512.3
2017-Nov-17 20:27N 55°10' E 011°00'612.6
2017-Nov-17 20:01N 55°04' E 010°60'612.6
2017-Nov-17 19:30N 54°58' E 010°57'510.6
2017-Nov-17 19:00N 54°54' E 010°51'510.7
2017-Nov-17 18:30N 54°49' E 010°50'612.8
2017-Nov-17 18:01N 54°42' E 010°47'611.7
2017-Nov-17 17:31N 54°38' E 010°54'612.7
2017-Nov-17 17:01N 54°36' E 011°04'612.9
2017-Nov-17 16:31N 54°35' E 011°15'612.9
2017-Nov-17 16:01N 54°32' E 011°25'713.4
2017-Nov-17 15:31N 54°29' E 011°35'713.2
2017-Nov-17 15:00N 54°27' E 011°46'713.0
2017-Nov-17 14:30N 54°26' E 011°58'712.7
2017-Nov-17 13:58N 54°27' E 012°09'611.8
2017-Nov-17 13:30N 54°32' E 012°14'611.1
2017-Nov-17 13:00N 54°37' E 012°16'5112.2
2017-Nov-17 08:50N 54°58' E 013°37'1813.5
2017-Nov-17 07:31N 55°05' E 014°05'014.2
2017-Nov-17 07:30N 55°05' E 014°06'713.9
2017-Nov-17 07:00N 55°10' E 014°13'713.6
2017-Nov-17 06:30N 55°16' E 014°21'713.9
2017-Nov-17 06:00N 55°21' E 014°28'714.1
2017-Nov-17 05:30N 55°26' E 014°36'713.7
2017-Nov-17 05:00N 55°29' E 014°47'713.3
2017-Nov-17 04:29N 55°33' E 014°58'613.1
2017-Nov-17 04:00N 55°36' E 015°08'713.3
2017-Nov-17 03:30N 55°39' E 015°18'613.2
2017-Nov-17 03:00N 55°40' E 015°29'713.2
2017-Nov-17 02:31N 55°42' E 015°41'713.1
2017-Nov-17 02:00N 55°43' E 015°52'612.9
2017-Nov-17 01:30N 55°45' E 016°03'612.7
2017-Nov-17 01:00N 55°46' E 016°14'612.6
2017-Nov-17 00:30N 55°48' E 016°25'612.7
2017-Nov-17 00:00N 55°49' E 016°36'30712.8
2017-Nov-15 23:58N 59°36' E 023°06'612.7
2017-Nov-15 23:31N 59°37' E 023°17'612.7
2017-Nov-15 23:01N 59°39' E 023°29'612.7
2017-Nov-15 22:31N 59°41' E 023°41'713.0
2017-Nov-15 22:00N 59°43' E 023°54'713.0
2017-Nov-15 21:30N 59°44' E 024°06'612.9
2017-Nov-15 21:00N 59°46' E 024°18'714.0
2017-Nov-15 20:31N 59°48' E 024°32'611.9
2017-Nov-15 20:01N 59°49' E 024°43'612.8
2017-Nov-15 19:30N 59°50' E 024°56'612.7
2017-Nov-15 19:00N 59°52' E 025°08'812.6
2017-Nov-15 18:21N 59°53' E 025°24'412.9
2017-Nov-15 18:01N 59°54' E 025°33'2013.0
2017-Nov-15 16:27N 59°59' E 026°12'510.8
2017-Nov-15 16:00N 59°58' E 026°22'713.6
2017-Nov-15 15:30N 59°52' E 026°26'713.5
2017-Nov-15 15:00N 59°45' E 026°30'613.0
2017-Nov-15 14:30N 59°43' E 026°42'713.2
2017-Nov-15 14:01N 59°41' E 026°55'713.1
2017-Nov-15 13:30N 59°38' E 027°07'713.1
2017-Nov-15 13:00N 59°36' E 027°19'913.2
2017-Nov-15 12:21N 59°32' E 027°34'412.6
2017-Nov-15 12:01N 59°30' E 027°41'4 7.7
2017-Nov-15 11:31N 59°26' E 027°44'  
2017-Nov-13 02:00N 59°43' E 026°55'713.9
2017-Nov-13 01:31N 59°48' E 026°48'714.1
2017-Nov-13 01:00N 59°55' E 026°42'612.0
2017-Nov-13 00:31N 59°59' E 026°33'714.2
2017-Nov-13 00:00N 59°57' E 026°19'1214.0
2017-Nov-12 23:10N 59°54' E 025°56'614.2
2017-Nov-12 22:46N 59°52' E 025°46'414.3
2017-Nov-12 22:30N 59°51' E 025°38'714.3
2017-Nov-12 22:00N 59°50' E 025°24'714.2
2017-Nov-12 21:30N 59°49' E 025°11'714.7
2017-Nov-12 21:01N 59°47' E 024°56'713.7
2017-Nov-12 20:31N 59°45' E 024°43'714.0
2017-Nov-12 20:01N 59°44' E 024°30'714.2
2017-Nov-12 19:30N 59°42' E 024°16'714.3
2017-Nov-12 19:00N 59°40' E 024°02'714.2
2017-Nov-12 18:30N 59°38' E 023°49'714.1
2017-Nov-12 18:00N 59°36' E 023°36'714.2
2017-Nov-12 17:30N 59°33' E 023°22'714.0
2017-Nov-12 16:59N 59°31' E 023°09'5 7.7
2017-Nov-12 16:18N 59°29' E 022°59'29513.2
2017-Nov-11 17:53N 55°48' E 016°53'514.1
2017-Nov-11 17:30N 55°47' E 016°44'714.1
2017-Nov-11 17:00N 55°45' E 016°32'714.2
2017-Nov-11 16:30N 55°44' E 016°19'714.1
2017-Nov-11 16:00N 55°42' E 016°07'714.0
2017-Nov-11 15:30N 55°40' E 015°55'713.8
2017-Nov-11 15:00N 55°39' E 015°43'713.9
2017-Nov-11 14:30N 55°37' E 015°31'714.1
2017-Nov-11 14:00N 55°35' E 015°19'713.9
2017-Nov-11 13:30N 55°32' E 015°08'713.8
2017-Nov-11 13:00N 55°29' E 014°57'714.0
2017-Nov-11 12:30N 55°26' E 014°46'713.4
2017-Nov-11 12:00N 55°22' E 014°37'713.7
2017-Nov-11 11:30N 55°16' E 014°30'713.5
2017-Nov-11 11:00N 55°11' E 014°22'713.6
2017-Nov-11 10:31N 55°10' E 014°10'1213.7
2017-Nov-11 09:37N 55°11' E 013°49'214.1
2017-Nov-11 09:30N 55°11' E 013°46'914.4
2017-Nov-11 08:51N 55°12' E 013°30'514.3
2017-Nov-11 08:31N 55°13' E 013°21'714.2
2017-Nov-11 08:01N 55°14' E 013°09'714.4
2017-Nov-11 07:30N 55°14' E 012°56'714.6
2017-Nov-11 07:01N 55°17' E 012°44'612.0
2017-Nov-11 06:30N 55°22' E 012°38'714.2
2017-Nov-11 06:01N 55°28' E 012°41'510.8
2017-Nov-11 05:30N 55°34' E 012°42'611.4
2017-Nov-11 05:00N 55°39' E 012°41'815.4
2017-Nov-11 04:30N 55°47' E 012°42'714.9
2017-Nov-11 04:00N 55°54' E 012°39'816.5
2017-Nov-11 03:30N 56°03' E 012°39'612.3
2017-Nov-11 03:01N 56°07' E 012°31'5 9.8
2017-Nov-11 02:30N 56°10' E 012°24'713.6
2017-Nov-11 02:00N 56°14' E 012°14'5614.5
2017-Nov-10 22:09N 57°06' E 011°39'215.2
2017-Nov-10 22:00N 57°08' E 011°38'714.9
2017-Nov-10 21:30N 57°15' E 011°33'815.0
2017-Nov-10 21:00N 57°22' E 011°28'714.3
2017-Nov-10 20:30N 57°28' E 011°21'714.3
2017-Nov-10 20:00N 57°33' E 011°11'714.3
2017-Nov-10 19:30N 57°38' E 011°01'714.9
2017-Nov-10 19:00N 57°42' E 010°49'3 5.1
2017-Nov-10 18:30N 57°44' E 010°47'4 6.8
2017-Nov-10 17:59N 57°48' E 010°47'3 6.0
2017-Nov-10 17:30N 57°50' E 010°44'510.3
2017-Nov-10 17:00N 57°50' E 010°34'612.5
2017-Nov-10 16:30N 57°50' E 010°23'711.2
2017-Nov-10 15:52N 57°48' E 010°09'22414.1
2017-Nov-09 23:57N 55°02' E 005°39'714.8
2017-Nov-09 23:30N 54°56' E 005°32'814.8
2017-Nov-09 22:59N 54°50' E 005°26'814.9
2017-Nov-09 22:29N 54°43' E 005°19'18413.8
2017-Nov-09 09:07N 52°05' E 002°40'615.1
2017-Nov-09 08:44N 51°59' E 002°39'315.1
2017-Nov-09 08:30N 51°56' E 002°38'815.3
2017-Nov-09 08:00N 51°48' E 002°35'1015.0
2017-Nov-09 07:21N 51°40' E 002°27'515.5
2017-Nov-09 07:00N 51°35' E 002°21'815.8
2017-Nov-09 06:30N 51°29' E 002°13'815.5
2017-Nov-09 06:00N 51°23' E 002°07'815.2
2017-Nov-09 05:30N 51°15' E 002°07'816.4
2017-Nov-09 05:00N 51°11' E 001°56'816.7
2017-Nov-09 04:30N 51°06' E 001°45'917.2
2017-Nov-09 04:00N 50°60' E 001°36'917.0
2017-Nov-09 03:30N 50°53' E 001°28'816.3
2017-Nov-09 03:00N 50°45' E 001°24'815.5
2017-Nov-09 02:30N 50°39' E 001°16'1015.3
2017-Nov-09 01:51N 50°32' E 001°04'514.9
2017-Nov-09 01:30N 50°29' E 000°58'815.4
2017-Nov-09 00:59N 50°27' E 000°46'815.8
2017-Nov-09 00:30N 50°25' E 000°34'816.1
2017-Nov-09 00:00N 50°23' E 000°22'816.4
2017-Nov-08 23:30N 50°21' E 000°10'  
Track history (hours):
 
Tides and Currents Weather Stations Pressure Air Temp Water Temp Dewpoint Dewpoint Depression Visibility Wind Speed Wind Dir Waves Ship Positions

Antimilos

Last reported at 2017-Nov-18 23:03 UTC. Time now 2017-Nov-24 09:46 UTC.
Position N 56°54' E 007°40'.

Length 228 m; draft 11.7 m.

Type: Tanker. MMSI: 241315000.

Date/timePositionNaut miles runAvg speedWind from/ knotsBaromVisibWave heightAir tempDewpointWater temp
2017-Nov-18 23:03N 56°54' E 007°40'1 8.9
2017-Nov-18 22:59N 56°54' E 007°41'4 9.1
2017-Nov-18 22:30N 56°58' E 007°46'5 9.3
2017-Nov-18 21:59N 57°01' E 007°52'4 8.1
2017-Nov-18 21:30N 57°04' E 007°57'4 8.3
2017-Nov-18 20:59N 57°08' E 008°01'87 9.6
2017-Nov-18 11:54N 57°49' E 010°23'512.1
2017-Nov-18 11:30N 57°49' E 010°32'611.9
2017-Nov-18 11:00N 57°49' E 010°43'610.8
2017-Nov-18 10:29N 57°44' E 010°48'4 7.2
2017-Nov-18 09:59N 57°41' E 010°47'4 8.5
2017-Nov-18 09:30N 57°38' E 010°52'612.8
2017-Nov-18 09:00N 57°35' E 011°02'612.9
2017-Nov-18 08:30N 57°32' E 011°13'712.9
2017-Nov-18 07:59N 57°29' E 011°24'613.4
2017-Nov-18 07:30N 57°23' E 011°30'713.6
2017-Nov-18 07:00N 57°17' E 011°34'713.5
2017-Nov-18 06:30N 57°10' E 011°39'713.4
2017-Nov-18 06:00N 57°04' E 011°42'11312.3
2017-Nov-17 20:50N 55°13' E 011°06'512.3
2017-Nov-17 20:27N 55°10' E 011°00'612.6
2017-Nov-17 20:01N 55°04' E 010°60'612.6
2017-Nov-17 19:30N 54°58' E 010°57'510.6
2017-Nov-17 19:00N 54°54' E 010°51'510.7
2017-Nov-17 18:30N 54°49' E 010°50'612.8
2017-Nov-17 18:01N 54°42' E 010°47'611.7
2017-Nov-17 17:31N 54°38' E 010°54'612.7
2017-Nov-17 17:01N 54°36' E 011°04'612.9
2017-Nov-17 16:31N 54°35' E 011°15'612.9
2017-Nov-17 16:01N 54°32' E 011°25'713.4
2017-Nov-17 15:31N 54°29' E 011°35'713.2
2017-Nov-17 15:00N 54°27' E 011°46'713.0
2017-Nov-17 14:30N 54°26' E 011°58'712.7
2017-Nov-17 13:58N 54°27' E 012°09'611.8
2017-Nov-17 13:30N 54°32' E 012°14'611.1
2017-Nov-17 13:00N 54°37' E 012°16'5112.2
2017-Nov-17 08:50N 54°58' E 013°37'1813.5
2017-Nov-17 07:31N 55°05' E 014°05'014.2
2017-Nov-17 07:30N 55°05' E 014°06'713.9
2017-Nov-17 07:00N 55°10' E 014°13'713.6
2017-Nov-17 06:30N 55°16' E 014°21'713.9
2017-Nov-17 06:00N 55°21' E 014°28'714.1
2017-Nov-17 05:30N 55°26' E 014°36'713.7
2017-Nov-17 05:00N 55°29' E 014°47'713.3
2017-Nov-17 04:29N 55°33' E 014°58'613.1
2017-Nov-17 04:00N 55°36' E 015°08'713.3
2017-Nov-17 03:30N 55°39' E 015°18'613.2
2017-Nov-17 03:00N 55°40' E 015°29'713.2
2017-Nov-17 02:31N 55°42' E 015°41'713.1
2017-Nov-17 02:00N 55°43' E 015°52'612.9
2017-Nov-17 01:30N 55°45' E 016°03'612.7
2017-Nov-17 01:00N 55°46' E 016°14'612.6
2017-Nov-17 00:30N 55°48' E 016°25'612.7
2017-Nov-17 00:00N 55°49' E 016°36'30712.8
2017-Nov-15 23:58N 59°36' E 023°06'612.7
2017-Nov-15 23:31N 59°37' E 023°17'612.7
2017-Nov-15 23:01N 59°39' E 023°29'612.7
2017-Nov-15 22:31N 59°41' E 023°41'713.0
2017-Nov-15 22:00N 59°43' E 023°54'713.0
2017-Nov-15 21:30N 59°44' E 024°06'612.9
2017-Nov-15 21:00N 59°46' E 024°18'714.0
2017-Nov-15 20:31N 59°48' E 024°32'611.9
2017-Nov-15 20:01N 59°49' E 024°43'612.8
2017-Nov-15 19:30N 59°50' E 024°56'612.7
2017-Nov-15 19:00N 59°52' E 025°08'812.6
2017-Nov-15 18:21N 59°53' E 025°24'412.9
2017-Nov-15 18:01N 59°54' E 025°33'2013.0
2017-Nov-15 16:27N 59°59' E 026°12'510.8
2017-Nov-15 16:00N 59°58' E 026°22'713.6
2017-Nov-15 15:30N 59°52' E 026°26'713.5
2017-Nov-15 15:00N 59°45' E 026°30'613.0
2017-Nov-15 14:30N 59°43' E 026°42'713.2
2017-Nov-15 14:01N 59°41' E 026°55'713.1
2017-Nov-15 13:30N 59°38' E 027°07'713.1
2017-Nov-15 13:00N 59°36' E 027°19'913.2
2017-Nov-15 12:21N 59°32' E 027°34'412.6
2017-Nov-15 12:01N 59°30' E 027°41'4 7.7
2017-Nov-15 11:31N 59°26' E 027°44'  
2017-Nov-13 02:00N 59°43' E 026°55'713.9
2017-Nov-13 01:31N 59°48' E 026°48'714.1
2017-Nov-13 01:00N 59°55' E 026°42'612.0
2017-Nov-13 00:31N 59°59' E 026°33'714.2
2017-Nov-13 00:00N 59°57' E 026°19'1214.0
2017-Nov-12 23:10N 59°54' E 025°56'614.2
2017-Nov-12 22:46N 59°52' E 025°46'414.3
2017-Nov-12 22:30N 59°51' E 025°38'714.3
2017-Nov-12 22:00N 59°50' E 025°24'714.2
2017-Nov-12 21:30N 59°49' E 025°11'714.7
2017-Nov-12 21:01N 59°47' E 024°56'713.7
2017-Nov-12 20:31N 59°45' E 024°43'714.0
2017-Nov-12 20:01N 59°44' E 024°30'714.2
2017-Nov-12 19:30N 59°42' E 024°16'714.3
2017-Nov-12 19:00N 59°40' E 024°02'714.2
2017-Nov-12 18:30N 59°38' E 023°49'714.1
2017-Nov-12 18:00N 59°36' E 023°36'714.2
2017-Nov-12 17:30N 59°33' E 023°22'714.0
2017-Nov-12 16:59N 59°31' E 023°09'5 7.7
2017-Nov-12 16:18N 59°29' E 022°59'29513.2
2017-Nov-11 17:53N 55°48' E 016°53'514.1
2017-Nov-11 17:30N 55°47' E 016°44'714.1
2017-Nov-11 17:00N 55°45' E 016°32'714.2
2017-Nov-11 16:30N 55°44' E 016°19'714.1
2017-Nov-11 16:00N 55°42' E 016°07'714.0
2017-Nov-11 15:30N 55°40' E 015°55'713.8
2017-Nov-11 15:00N 55°39' E 015°43'713.9
2017-Nov-11 14:30N 55°37' E 015°31'714.1
2017-Nov-11 14:00N 55°35' E 015°19'713.9
2017-Nov-11 13:30N 55°32' E 015°08'713.8
2017-Nov-11 13:00N 55°29' E 014°57'714.0
2017-Nov-11 12:30N 55°26' E 014°46'713.4
2017-Nov-11 12:00N 55°22' E 014°37'713.7
2017-Nov-11 11:30N 55°16' E 014°30'713.5
2017-Nov-11 11:00N 55°11' E 014°22'713.6
2017-Nov-11 10:31N 55°10' E 014°10'1213.7
2017-Nov-11 09:37N 55°11' E 013°49'214.1
2017-Nov-11 09:30N 55°11' E 013°46'914.4
2017-Nov-11 08:51N 55°12' E 013°30'514.3
2017-Nov-11 08:31N 55°13' E 013°21'714.2
2017-Nov-11 08:01N 55°14' E 013°09'714.4
2017-Nov-11 07:30N 55°14' E 012°56'714.6
2017-Nov-11 07:01N 55°17' E 012°44'612.0
2017-Nov-11 06:30N 55°22' E 012°38'714.2
2017-Nov-11 06:01N 55°28' E 012°41'510.8
2017-Nov-11 05:30N 55°34' E 012°42'611.4
2017-Nov-11 05:00N 55°39' E 012°41'815.4
2017-Nov-11 04:30N 55°47' E 012°42'714.9
2017-Nov-11 04:00N 55°54' E 012°39'816.5
2017-Nov-11 03:30N 56°03' E 012°39'612.3
2017-Nov-11 03:01N 56°07' E 012°31'5 9.8
2017-Nov-11 02:30N 56°10' E 012°24'713.6
2017-Nov-11 02:00N 56°14' E 012°14'5614.5
2017-Nov-10 22:09N 57°06' E 011°39'215.2
2017-Nov-10 22:00N 57°08' E 011°38'714.9
2017-Nov-10 21:30N 57°15' E 011°33'815.0
2017-Nov-10 21:00N 57°22' E 011°28'714.3
2017-Nov-10 20:30N 57°28' E 011°21'714.3
2017-Nov-10 20:00N 57°33' E 011°11'714.3
2017-Nov-10 19:30N 57°38' E 011°01'714.9
2017-Nov-10 19:00N 57°42' E 010°49'3 5.1
2017-Nov-10 18:30N 57°44' E 010°47'4 6.8
2017-Nov-10 17:59N 57°48' E 010°47'3 6.0
2017-Nov-10 17:30N 57°50' E 010°44'510.3
2017-Nov-10 17:00N 57°50' E 010°34'612.5
2017-Nov-10 16:30N 57°50' E 010°23'711.2
2017-Nov-10 15:52N 57°48' E 010°09'22414.1
2017-Nov-09 23:57N 55°02' E 005°39'714.8
2017-Nov-09 23:30N 54°56' E 005°32'814.8
2017-Nov-09 22:59N 54°50' E 005°26'814.9
2017-Nov-09 22:29N 54°43' E 005°19'18413.8
2017-Nov-09 09:07N 52°05' E 002°40'615.1
2017-Nov-09 08:44N 51°59' E 002°39'315.1
2017-Nov-09 08:30N 51°56' E 002°38'815.3
2017-Nov-09 08:00N 51°48' E 002°35'1015.0
2017-Nov-09 07:21N 51°40' E 002°27'515.5
2017-Nov-09 07:00N 51°35' E 002°21'815.8
2017-Nov-09 06:30N 51°29' E 002°13'815.5
2017-Nov-09 06:00N 51°23' E 002°07'815.2
2017-Nov-09 05:30N 51°15' E 002°07'816.4
2017-Nov-09 05:00N 51°11' E 001°56'816.7
2017-Nov-09 04:30N 51°06' E 001°45'917.2
2017-Nov-09 04:00N 50°60' E 001°36'917.0
2017-Nov-09 03:30N 50°53' E 001°28'816.3
2017-Nov-09 03:00N 50°45' E 001°24'815.5
2017-Nov-09 02:30N 50°39' E 001°16'1015.3
2017-Nov-09 01:51N 50°32' E 001°04'514.9
2017-Nov-09 01:30N 50°29' E 000°58'815.4
2017-Nov-09 00:59N 50°27' E 000°46'815.8
2017-Nov-09 00:30N 50°25' E 000°34'816.1
2017-Nov-09 00:00N 50°23' E 000°22'816.4
2017-Nov-08 23:30N 50°21' E 000°10'  

Dump ship's entire track history